Airfield :
LOGIN :

Register | Disclaimer

   EN    FR    IT 

 










Legend :    VFR   Marginal VFR   IFR   Intensive IFR   Very Intensive IFR
Visi :
Ceiling :
>= 8 km
>= 3000ft
5 to 8 km
1000 to 3000 ft
1500m to 5 km
500 to 1000 ft
800 to 1500m
200 to 500 ft
< 800m
< 200 ft
Symbols :   Thunderstorms  Fog  Heavy snow  Heavy precipitations  Wind > 20 kt
SIGMETs :     Misc.  Thunderstorms  Icing  Turbulence  Mountain Waves  Volcanic Ashes






- Airport Elevation : 156 ft
- IATA code : OMO


LQMO - Mostar

CURRENT METAR :
  • 200330Z VRB01KT CAVOK 02/M00 Q1008

EXPIRED METARs :
  • 200300Z VRB02KT CAVOK 03/00 Q1008
  • 200230Z VRB01KT CAVOK 02/M00 Q1008
  • 200200Z VRB01KT CAVOK 02/M01 Q1009
  • 200130Z VRB01KT CAVOK 03/00 Q1009
  • 200100Z VRB02KT CAVOK 02/M01 Q1008
  • 200030Z VRB02KT CAVOK 04/M00 Q1009
  • 200000Z VRB02KT CAVOK 05/M00 Q1009
  • 192330Z VRB02KT CAVOK 05/M00 Q1009
  • 192300Z VRB03KT CAVOK 05/M00 Q1009

TAF TAF LQMO
Valid from the 20 at 00:00 until the 21 at 00:00 UTC


192300Z 2000/2024 32007KT CAVOK TX19/2014Z TN02/2004Z
TEMPO 2011/2016 22010KT
BECMG 2020/2022 35012KT



MET'MAP, your aeronautical weather chart ! - Copyright ORBIFLY December 2007 - Disclaimer

ORBIFLY MET'MAP TEAM :

Programming & Development : Alexandra Zaïnal
Original concept : Baudouin d'Aumeries
Technical & hardware support : Manuel Goepfert
Assistance : Marc-Olivier Méhu




SOURCES & CREDITS :

   NOAA